Terminal Aerodrome Forecast
Issued by NWS Binghamton, NY

Home | Current Version | Previous Version | Text Only | Print | Product List | Glossary On
Versions: 1 2 3 4 5 6 7 8 9 10 11 12 13 14 15 16 17 18 19 20 21 22 23 24
000
FTUS41 KBGM 302300
TAFBGM
TAF
KBGM 302328Z 3100/3124 21006KT P6SM SCT050 BKN100
      TEMPO 3100/3101 30009KT -SHRA OVC050
     FM311200 23008KT P6SM SCT025 BKN040
      TEMPO 3112/3116 4SM -SHRA OVC025
     FM311800 26010KT P6SM BKN050=

USA.gov is the U.S. government's official web portal to all federal, state and local government web resources and services.